sensor_id;sensor_type;location;lat;lon;timestamp;pressure;altitude;pressure_sealevel;temperature;humidity
54918;BME280;40818;50.562;7.454;2022-09-03T05:56:18;97296.63;;;13.62;67.15
54918;BME280;40818;50.562;7.454;2022-09-03T06:01:24;97308.03;;;13.92;66.65
54918;BME280;40818;50.562;7.454;2022-09-03T06:06:29;97311.66;;;14.11;66.76
54918;BME280;40818;50.562;7.454;2022-09-03T06:11:37;97302.75;;;14.23;64.93
54918;BME280;40818;50.562;7.454;2022-09-03T06:16:43;97321.22;;;14.41;64.83
54918;BME280;40818;50.562;7.454;2022-09-03T06:21:48;97317.22;;;14.47;64.53
54918;BME280;40818;50.562;7.454;2022-09-03T06:26:55;97329.75;;;14.43;63.88
54918;BME280;40818;50.562;7.454;2022-09-03T06:31:58;97311.56;;;14.42;65.09
54918;BME280;40818;50.562;7.454;2022-09-03T06:37:03;97321.34;;;14.40;66.21
54918;BME280;40818;50.562;7.454;2022-09-03T06:42:09;97317.34;;;14.36;65.07
54918;BME280;40818;50.562;7.454;2022-09-03T06:47:15;97324.78;;;14.40;66.01
54918;BME280;40818;50.562;7.454;2022-09-03T06:52:19;97331.78;;;14.40;65.74
54918;BME280;40818;50.562;7.454;2022-09-03T06:57:25;97337.44;;;14.45;65.32
54918;BME280;40818;50.562;7.454;2022-09-03T07:02:29;97347.34;;;14.61;66.20
54918;BME280;40818;50.562;7.454;2022-09-03T07:07:33;97346.00;;;14.66;65.58
54918;BME280;40818;50.562;7.454;2022-09-03T07:12:39;97365.69;;;14.20;75.10
54918;BME280;40818;50.562;7.454;2022-09-03T07:17:42;97342.63;;;13.63;82.18
54918;BME280;40818;50.562;7.454;2022-09-03T07:22:46;97349.50;;;13.43;84.49
54918;BME280;40818;50.562;7.454;2022-09-03T07:27:52;97348.81;;;13.41;86.35
54918;BME280;40818;50.562;7.454;2022-09-03T07:32:56;97351.28;;;13.43;87.71
54918;BME280;40818;50.562;7.454;2022-09-03T07:38:03;97349.88;;;13.39;85.26
54918;BME280;40818;50.562;7.454;2022-09-03T07:43:10;97353.47;;;13.38;88.41
54918;BME280;40818;50.562;7.454;2022-09-03T07:48:13;97356.75;;;13.40;89.98
54918;BME280;40818;50.562;7.454;2022-09-03T07:53:17;97354.59;;;13.45;91.10
54918;BME280;40818;50.562;7.454;2022-09-03T07:58:24;97355.22;;;13.37;89.18
54918;BME280;40818;50.562;7.454;2022-09-03T08:03:30;97357.47;;;13.42;86.93
54918;BME280;40818;50.562;7.454;2022-09-03T08:08:35;97365.53;;;13.39;87.94
54918;BME280;40818;50.562;7.454;2022-09-03T08:13:44;97367.38;;;13.48;86.30
54918;BME280;40818;50.562;7.454;2022-09-03T08:18:47;97365.28;;;13.63;86.87
54918;BME280;40818;50.562;7.454;2022-09-03T08:23:52;97378.38;;;13.73;85.87
54918;BME280;40818;50.562;7.454;2022-09-03T08:29:05;97370.91;;;13.89;83.32
54918;BME280;40818;50.562;7.454;2022-09-03T08:34:08;97375.09;;;14.02;81.61
54918;BME280;40818;50.562;7.454;2022-09-03T08:39:14;97383.00;;;14.21;82.36
54918;BME280;40818;50.562;7.454;2022-09-03T08:44:24;97388.13;;;14.32;81.12
54918;BME280;40818;50.562;7.454;2022-09-03T08:49:33;97377.03;;;14.50;80.41
54918;BME280;40818;50.562;7.454;2022-09-03T08:54:39;97385.06;;;14.68;80.21
54918;BME280;40818;50.562;7.454;2022-09-03T08:59:46;97379.75;;;14.99;82.79
54918;BME280;40818;50.562;7.454;2022-09-03T09:04:58;97394.31;;;15.11;81.30
54918;BME280;40818;50.562;7.454;2022-09-03T09:10:11;97393.78;;;15.27;79.75
54918;BME280;40818;50.562;7.454;2022-09-03T09:15:27;97384.84;;;15.40;81.55
54918;BME280;40818;50.562;7.454;2022-09-03T09:20:37;97383.84;;;15.60;80.42
54918;BME280;40818;50.562;7.454;2022-09-03T09:25:47;97386.31;;;15.72;81.28
54918;BME280;40818;50.562;7.454;2022-09-03T09:30:55;97379.38;;;15.90;79.56
54918;BME280;40818;50.562;7.454;2022-09-03T09:36:00;97375.03;;;16.09;78.94
54918;BME280;40818;50.562;7.454;2022-09-03T09:41:09;97383.56;;;16.20;80.75
54918;BME280;40818;50.562;7.454;2022-09-03T09:46:20;97381.91;;;16.19;83.62
54918;BME280;40818;50.562;7.454;2022-09-03T09:51:25;97386.88;;;16.13;87.28
54918;BME280;40818;50.562;7.454;2022-09-03T09:56:30;97390.75;;;16.09;91.71
54918;BME280;40818;50.562;7.454;2022-09-03T10:01:37;97394.69;;;16.23;94.11
54918;BME280;40818;50.562;7.454;2022-09-03T10:06:42;97403.09;;;16.26;97.33
54918;BME280;40818;50.562;7.454;2022-09-03T10:12:12;97401.34;;;16.45;96.92
54918;BME280;40818;50.562;7.454;2022-09-03T10:17:26;97395.13;;;16.73;93.58
54918;BME280;40818;50.562;7.454;2022-09-03T10:22:32;97404.41;;;16.96;92.02
54918;BME280;40818;50.562;7.454;2022-09-03T10:27:40;97408.22;;;17.01;91.00
54918;BME280;40818;50.562;7.454;2022-09-03T10:32:57;97403.28;;;16.98;93.76
54918;BME280;40818;50.562;7.454;2022-09-03T10:38:09;97391.38;;;17.04;93.68
54918;BME280;40818;50.562;7.454;2022-09-03T10:43:43;97393.38;;;17.28;90.56
54918;BME280;40818;50.562;7.454;2022-09-03T10:49:33;97395.91;;;17.56;86.09
54918;BME280;40818;50.562;7.454;2022-09-03T10:54:59;97396.22;;;17.97;85.35
54918;BME280;40818;50.562;7.454;2022-09-03T11:00:10;97396.56;;;18.37;85.07
54918;BME280;40818;50.562;7.454;2022-09-03T11:05:20;97389.72;;;19.03;79.82
54918;BME280;40818;50.562;7.454;2022-09-03T11:10:27;97389.75;;;19.36;77.57
54918;BME280;40818;50.562;7.454;2022-09-03T11:15:33;97388.44;;;19.40;76.77
54918;BME280;40818;50.562;7.454;2022-09-03T11:20:42;97386.44;;;19.84;75.29
54918;BME280;40818;50.562;7.454;2022-09-03T11:25:49;97375.25;;;19.82;74.72
54918;BME280;40818;50.562;7.454;2022-09-03T11:31:16;97359.75;;;19.87;74.24
54918;BME280;40818;50.562;7.454;2022-09-03T11:36:28;97361.78;;;20.24;73.06
54918;BME280;40818;50.562;7.454;2022-09-03T11:41:33;97359.00;;;20.89;72.75
54918;BME280;40818;50.562;7.454;2022-09-03T11:46:39;97359.84;;;21.89;64.87
54918;BME280;40818;50.562;7.454;2022-09-03T11:51:56;97355.66;;;22.09;66.57
54918;BME280;40818;50.562;7.454;2022-09-03T11:57:10;97349.59;;;22.60;63.47
54918;BME280;40818;50.562;7.454;2022-09-03T12:02:25;97356.13;;;23.23;61.27
54918;BME280;40818;50.562;7.454;2022-09-03T12:07:41;97356.41;;;23.28;59.87
54918;BME280;40818;50.562;7.454;2022-09-03T12:12:55;97353.72;;;23.78;58.30
54918;BME280;40818;50.562;7.454;2022-09-03T12:18:03;97346.22;;;23.10;58.26
54918;BME280;40818;50.562;7.454;2022-09-03T12:23:29;97351.00;;;22.56;61.76
54918;BME280;40818;50.562;7.454;2022-09-03T12:28:35;97358.03;;;22.34;63.25
54918;BME280;40818;50.562;7.454;2022-09-03T12:33:41;97351.53;;;23.10;60.08
54918;BME280;40818;50.562;7.454;2022-09-03T12:38:47;97352.50;;;23.24;60.93
54918;BME280;40818;50.562;7.454;2022-09-03T12:43:52;97348.38;;;23.71;59.04
54918;BME280;40818;50.562;7.454;2022-09-03T12:48:57;97339.13;;;23.60;57.61
54918;BME280;40818;50.562;7.454;2022-09-03T12:54:07;97331.91;;;23.47;56.80
54918;BME280;40818;50.562;7.454;2022-09-03T12:59:16;97333.59;;;23.55;57.89
54918;BME280;40818;50.562;7.454;2022-09-03T13:04:24;97332.31;;;23.01;59.32
54918;BME280;40818;50.562;7.454;2022-09-03T13:09:34;97336.69;;;22.72;59.89
54918;BME280;40818;50.562;7.454;2022-09-03T13:14:42;97324.88;;;23.33;57.23
54918;BME280;40818;50.562;7.454;2022-09-03T13:20:11;97330.84;;;23.98;57.37
54918;BME280;40818;50.562;7.454;2022-09-03T13:25:24;97325.34;;;23.43;58.22
54918;BME280;40818;50.562;7.454;2022-09-03T13:30:37;97322.88;;;23.13;56.33
54918;BME280;40818;50.562;7.454;2022-09-03T13:35:46;97324.75;;;22.10;61.87
54918;BME280;40818;50.562;7.454;2022-09-03T13:40:59;97331.06;;;21.94;63.21
54918;BME280;40818;50.562;7.454;2022-09-03T13:46:10;97324.00;;;23.26;60.58
54918;BME280;40818;50.562;7.454;2022-09-03T13:51:18;97331.03;;;23.97;54.66
54918;BME280;40818;50.562;7.454;2022-09-03T13:56:35;97325.50;;;23.35;57.77
54918;BME280;40818;50.562;7.454;2022-09-03T14:02:01;97333.03;;;23.38;58.95
54918;BME280;40818;50.562;7.454;2022-09-03T14:07:14;97330.09;;;22.83;59.46
54918;BME280;40818;50.562;7.454;2022-09-03T14:12:34;97325.38;;;22.27;62.44
54918;BME280;40818;50.562;7.454;2022-09-03T14:17:46;97328.84;;;21.53;66.50
54918;BME280;40818;50.562;7.454;2022-09-03T14:22:52;97319.34;;;21.43;67.89
54918;BME280;40818;50.562;7.454;2022-09-03T14:28:18;97321.66;;;21.61;67.66
54918;BME280;40818;50.562;7.454;2022-09-03T14:33:37;97318.28;;;21.53;68.08
54918;BME280;40818;50.562;7.454;2022-09-03T14:38:56;97321.53;;;21.17;70.50
54918;BME280;40818;50.562;7.454;2022-09-03T14:44:25;97336.13;;;21.04;71.83
54918;BME280;40818;50.562;7.454;2022-09-03T14:49:43;97346.16;;;20.86;71.52
54918;BME280;40818;50.562;7.454;2022-09-03T14:55:07;97343.00;;;20.59;73.28
54918;BME280;40818;50.562;7.454;2022-09-03T15:00:19;97336.31;;;20.48;73.38
54918;BME280;40818;50.562;7.454;2022-09-03T15:06:06;97331.47;;;20.28;74.95
54918;BME280;40818;50.562;7.454;2022-09-03T15:11:16;97336.63;;;20.13;76.29
54918;BME280;40818;50.562;7.454;2022-09-03T15:16:32;97335.66;;;20.06;77.03
54918;BME280;40818;50.562;7.454;2022-09-03T15:21:50;97349.53;;;20.00;77.57
54918;BME280;40818;50.562;7.454;2022-09-03T15:27:11;97357.44;;;20.00;77.49
54918;BME280;40818;50.562;7.454;2022-09-03T15:32:31;97364.34;;;19.93;77.90
54918;BME280;40818;50.562;7.454;2022-09-03T15:37:43;97371.25;;;19.94;78.44
54918;BME280;40818;50.562;7.454;2022-09-03T15:42:50;97378.69;;;19.99;78.13
54918;BME280;40818;50.562;7.454;2022-09-03T15:48:09;97407.09;;;20.20;75.98
54918;BME280;40818;50.562;7.454;2022-09-03T15:53:24;97415.66;;;20.22;74.25
54918;BME280;40818;50.562;7.454;2022-09-03T15:58:34;97422.06;;;20.27;75.56
54918;BME280;40818;50.562;7.454;2022-09-03T16:03:52;97432.78;;;20.26;79.86
54918;BME280;40818;50.562;7.454;2022-09-03T16:09:01;97444.63;;;20.22;82.17
54918;BME280;40818;50.562;7.454;2022-09-03T16:14:11;97442.56;;;18.84;100.00
54918;BME280;40818;50.562;7.454;2022-09-03T16:19:24;97450.03;;;17.93;100.00
54918;BME280;40818;50.562;7.454;2022-09-03T16:24:37;97444.47;;;17.60;100.00
54918;BME280;40818;50.562;7.454;2022-09-03T16:29:55;97472.22;;;16.81;100.00
54918;BME280;40818;50.562;7.454;2022-09-03T16:35:10;97473.50;;;16.39;100.00
54918;BME280;40818;50.562;7.454;2022-09-03T16:40:21;97472.75;;;16.19;100.00
54918;BME280;40818;50.562;7.454;2022-09-03T16:45:34;97470.28;;;16.08;100.00
54918;BME280;40818;50.562;7.454;2022-09-03T16:50:55;97470.72;;;15.93;100.00
54918;BME280;40818;50.562;7.454;2022-09-03T16:56:17;97465.22;;;15.86;100.00
54918;BME280;40818;50.562;7.454;2022-09-03T17:01:40;97459.44;;;15.93;100.00
54918;BME280;40818;50.562;7.454;2022-09-03T17:07:02;97453.22;;;16.03;100.00
54918;BME280;40818;50.562;7.454;2022-09-03T17:12:15;97445.84;;;16.17;100.00
54918;BME280;40818;50.562;7.454;2022-09-03T17:17:36;97438.44;;;16.12;100.00
54918;BME280;40818;50.562;7.454;2022-09-03T17:22:54;97435.44;;;15.97;100.00
54918;BME280;40818;50.562;7.454;2022-09-03T17:28:23;97429.25;;;15.89;100.00
54918;BME280;40818;50.562;7.454;2022-09-03T17:33:45;97433.41;;;15.81;100.00
54918;BME280;40818;50.562;7.454;2022-09-03T17:44:18;97442.91;;;15.63;100.00
54918;BME280;40818;50.562;7.454;2022-09-03T17:49:26;97436.56;;;15.56;100.00
54918;BME280;40818;50.562;7.454;2022-09-03T17:54:37;97450.09;;;15.41;100.00
54918;BME280;40818;50.562;7.454;2022-09-03T17:59:50;97449.25;;;15.31;100.00
54918;BME280;40818;50.562;7.454;2022-09-03T18:04:59;97455.16;;;15.23;100.00
54918;BME280;40818;50.562;7.454;2022-09-03T18:10:16;97454.59;;;15.19;100.00
54918;BME280;40818;50.562;7.454;2022-09-03T18:15:26;97452.41;;;15.15;100.00
54918;BME280;40818;50.562;7.454;2022-09-03T18:20:40;97449.91;;;15.04;100.00
54918;BME280;40818;50.562;7.454;2022-09-03T18:25:59;97460.50;;;14.92;100.00
54918;BME280;40818;50.562;7.454;2022-09-03T18:31:18;97451.97;;;15.00;100.00
54918;BME280;40818;50.562;7.454;2022-09-03T18:36:35;97455.03;;;15.34;100.00
54918;BME280;40818;50.562;7.454;2022-09-03T18:41:59;97472.66;;;15.32;100.00
54918;BME280;40818;50.562;7.454;2022-09-03T18:47:32;97464.91;;;15.01;100.00
54918;BME280;40818;50.562;7.454;2022-09-03T18:52:55;97478.91;;;14.81;100.00
54918;BME280;40818;50.562;7.454;2022-09-03T18:58:22;97481.63;;;14.79;100.00
54918;BME280;40818;50.562;7.454;2022-09-03T19:03:55;97489.75;;;14.86;100.00
54918;BME280;40818;50.562;7.454;2022-09-03T19:09:20;97501.75;;;14.89;100.00
54918;BME280;40818;50.562;7.454;2022-09-03T19:14:50;97508.06;;;14.86;100.00
54918;BME280;40818;50.562;7.454;2022-09-03T19:20:17;97509.09;;;14.74;100.00
54918;BME280;40818;50.562;7.454;2022-09-03T19:25:36;97519.69;;;14.72;100.00
54918;BME280;40818;50.562;7.454;2022-09-03T19:31:02;97526.72;;;14.72;100.00
54918;BME280;40818;50.562;7.454;2022-09-03T19:36:29;97531.38;;;14.68;100.00
54918;BME280;40818;50.562;7.454;2022-09-03T19:41:58;97533.59;;;14.73;100.00
54918;BME280;40818;50.562;7.454;2022-09-03T19:47:26;97546.72;;;14.82;100.00
54918;BME280;40818;50.562;7.454;2022-09-03T19:52:52;97546.47;;;14.95;100.00
54918;BME280;40818;50.562;7.454;2022-09-03T19:58:09;97545.81;;;15.03;100.00
54918;BME280;40818;50.562;7.454;2022-09-03T20:03:26;97543.06;;;15.05;100.00
54918;BME280;40818;50.562;7.454;2022-09-03T20:08:46;97548.25;;;14.95;100.00
54918;BME280;40818;50.562;7.454;2022-09-03T20:14:04;97556.66;;;14.98;100.00
54918;BME280;40818;50.562;7.454;2022-09-03T20:19:20;97569.63;;;15.10;100.00
54918;BME280;40818;50.562;7.454;2022-09-03T20:24:37;97568.94;;;15.08;100.00
54918;BME280;40818;50.562;7.454;2022-09-03T20:29:58;97572.19;;;15.00;100.00
54918;BME280;40818;50.562;7.454;2022-09-03T20:35:08;97581.75;;;15.11;100.00
54918;BME280;40818;50.562;7.454;2022-09-03T20:40:22;97573.94;;;15.21;100.00
54918;BME280;40818;50.562;7.454;2022-09-03T20:45:31;97582.34;;;15.24;100.00
54918;BME280;40818;50.562;7.454;2022-09-03T20:50:51;97585.16;;;15.11;100.00
54918;BME280;40818;50.562;7.454;2022-09-03T20:56:00;97581.28;;;15.06;100.00
54918;BME280;40818;50.562;7.454;2022-09-03T21:01:07;97587.41;;;15.16;100.00
54918;BME280;40818;50.562;7.454;2022-09-03T21:06:20;97592.03;;;15.02;100.00
54918;BME280;40818;50.562;7.454;2022-09-03T21:11:36;97591.72;;;14.96;100.00
54918;BME280;40818;50.562;7.454;2022-09-03T21:16:50;97587.13;;;14.78;100.00
54918;BME280;40818;50.562;7.454;2022-09-03T21:21:58;97587.63;;;14.51;100.00
54918;BME280;40818;50.562;7.454;2022-09-03T21:27:15;97586.09;;;14.48;100.00
54918;BME280;40818;50.562;7.454;2022-09-03T21:32:29;97585.53;;;14.45;100.00
54918;BME280;40818;50.562;7.454;2022-09-03T21:37:34;97588.91;;;14.36;100.00
54918;BME280;40818;50.562;7.454;2022-09-03T21:42:44;97584.38;;;14.38;100.00
54918;BME280;40818;50.562;7.454;2022-09-03T21:47:52;97590.84;;;14.33;100.00
54918;BME280;40818;50.562;7.454;2022-09-03T21:53:01;97593.47;;;14.22;100.00
